createdAt,value
2018-12-21T00:00:17.633Z,15.16
2018-12-21T00:00:49.607Z,15.13
2018-12-21T00:01:21.606Z,15.12
2018-12-21T00:01:53.599Z,15.1
2018-12-21T00:02:25.571Z,15.16
2018-12-21T00:02:57.542Z,15.19
2018-12-21T00:03:29.521Z,15.13
2018-12-21T00:04:01.496Z,15.23
2018-12-21T00:04:33.516Z,15.19
2018-12-21T00:05:05.481Z,15.16
2018-12-21T00:05:37.448Z,15.13
2018-12-21T00:06:09.458Z,15.25
2018-12-21T00:06:41.437Z,15.2
2018-12-21T00:07:13.420Z,15.13
2018-12-21T00:07:45.421Z,15.27
2018-12-21T00:08:17.389Z,15.18
2018-12-21T00:08:49.367Z,15.23
2018-12-21T00:09:21.339Z,15.15
2018-12-21T00:09:53.321Z,15.19
2018-12-21T00:10:25.295Z,15.1
2018-12-21T00:10:57.337Z,15.1
2018-12-21T00:11:29.321Z,15.16
2018-12-21T00:12:01.277Z,15.23
2018-12-21T00:12:33.272Z,15.13
2018-12-21T00:13:05.250Z,15.16
2018-12-21T00:13:37.262Z,15.08
2018-12-21T00:14:09.242Z,15.16
2018-12-21T00:14:41.219Z,15.22
2018-12-21T00:15:13.186Z,15.1
2018-12-21T00:15:45.181Z,15.15
2018-12-21T00:16:17.153Z,15.13
2018-12-21T00:16:49.135Z,15.15
2018-12-21T00:17:21.099Z,15.16
2018-12-21T00:17:53.067Z,15.16
2018-12-21T00:18:25.032Z,15.16
2018-12-21T00:18:56.994Z,15.19
2018-12-21T00:19:29.046Z,15.16
2018-12-21T00:20:01.015Z,15.16
2018-12-21T00:20:33.139Z,15.18
2018-12-21T00:21:05.136Z,15.15
2018-12-21T00:21:37.117Z,15.13
2018-12-21T00:22:09.087Z,15.2
2018-12-21T00:22:41.065Z,15.13
2018-12-21T00:23:13.052Z,15.16
2018-12-21T00:23:45.149Z,15.1
2018-12-21T00:24:17.121Z,15.18
2018-12-21T00:24:49.110Z,15.13
2018-12-21T00:25:21.092Z,15.18
2018-12-21T00:25:53.066Z,15.15
2018-12-21T00:26:25.044Z,15.18
2018-12-21T00:26:57.013Z,15.15
2018-12-21T00:27:29.015Z,15.15
2018-12-21T00:28:00.984Z,15.12
2018-12-21T00:28:32.955Z,15.18
2018-12-21T00:29:04.935Z,15.15
2018-12-21T00:29:36.887Z,15.1
2018-12-21T00:30:08.863Z,15.12
2018-12-21T00:30:40.828Z,15.16
2018-12-21T00:31:12.802Z,15.1
2018-12-21T00:31:44.788Z,15.16
2018-12-21T00:32:16.779Z,15.26
2018-12-21T00:32:48.762Z,15.18
2018-12-21T00:33:20.751Z,15.18
2018-12-21T00:33:52.737Z,15.12
2018-12-21T00:34:24.723Z,15.18
2018-12-21T00:34:56.704Z,15.15
2018-12-21T00:35:28.689Z,15.08
2018-12-21T00:36:00.677Z,15.2
2018-12-21T00:36:32.644Z,15.13
2018-12-21T00:37:04.657Z,15.15
2018-12-21T00:37:36.648Z,15.12
2018-12-21T00:38:08.632Z,15.13
2018-12-21T00:38:40.734Z,15.12
2018-12-21T00:39:12.698Z,15.12
2018-12-21T00:39:44.666Z,15.18
2018-12-21T00:40:16.633Z,15.1
2018-12-21T00:40:48.618Z,15.12
2018-12-21T00:41:20.593Z,15.12
2018-12-21T00:41:52.568Z,15.15
2018-12-21T00:42:24.597Z,15.08
2018-12-21T00:42:56.560Z,15.1
2018-12-21T00:43:28.534Z,15.07
2018-12-21T00:44:00.505Z,15.13
2018-12-21T00:44:32.468Z,15.08
2018-12-21T00:45:04.447Z,15.16
2018-12-21T00:45:36.424Z,15.12
2018-12-21T00:46:08.412Z,15.08
2018-12-21T00:46:40.438Z,15.13
2018-12-21T00:47:12.404Z,15.13
2018-12-21T00:47:44.369Z,15.13
2018-12-21T00:48:16.349Z,15.16
2018-12-21T00:48:48.313Z,15.07
2018-12-21T00:49:20.384Z,15.13
2018-12-21T00:49:52.355Z,15.16
2018-12-21T00:50:24.327Z,15.13
2018-12-21T00:50:56.289Z,15.15
2018-12-21T00:51:30.255Z,15.1
2018-12-21T00:52:02.443Z,15.08
2018-12-21T00:52:34.418Z,15.1
2018-12-21T00:53:06.386Z,15.15
2018-12-21T00:53:38.361Z,15.12
2018-12-21T00:54:10.428Z,15.13
2018-12-21T00:54:42.397Z,15.08
2018-12-21T00:55:14.391Z,15.13
2018-12-21T00:55:46.359Z,15.12
2018-12-21T00:56:18.328Z,15.12
2018-12-21T00:56:50.324Z,15.13
2018-12-21T00:57:22.292Z,15.15
2018-12-21T00:57:54.248Z,15.13
2018-12-21T00:58:26.216Z,15.05
2018-12-21T00:58:58.198Z,15.1
2018-12-21T00:59:30.163Z,15.07
2018-12-21T01:00:02.134Z,15.05
2018-12-21T01:00:34.118Z,15.18
2018-12-21T01:01:06.094Z,15.08
2018-12-21T01:01:38.057Z,15.07
2018-12-21T01:02:10.023Z,15.07
2018-12-21T01:02:41.999Z,15.1
2018-12-21T01:03:13.978Z,15.16
2018-12-21T01:03:45.971Z,15.12
2018-12-21T01:04:17.940Z,15.12
2018-12-21T01:04:49.913Z,15.13
2018-12-21T01:05:21.884Z,15.15
2018-12-21T01:05:53.886Z,15.13
2018-12-21T01:06:25.858Z,15.13
2018-12-21T01:06:57.832Z,15.13
2018-12-21T01:07:29.806Z,15.05
2018-12-21T01:08:01.783Z,15.04
2018-12-21T01:08:33.764Z,15.07
2018-12-21T01:09:05.725Z,15.16
2018-12-21T01:09:37.762Z,15.12
2018-12-21T01:10:09.738Z,15.18
2018-12-21T01:10:41.722Z,15.16
2018-12-21T01:11:13.702Z,15.16
2018-12-21T01:11:45.757Z,15.13
2018-12-21T01:12:17.735Z,15.19
2018-12-21T01:12:49.702Z,15.16
2018-12-21T01:13:21.663Z,15.13
2018-12-21T01:13:53.663Z,15.12
2018-12-21T01:14:25.636Z,15.13
2018-12-21T01:14:57.594Z,15.13
2018-12-21T01:15:29.558Z,15.22
2018-12-21T01:16:01.522Z,15.1
2018-12-21T01:16:33.495Z,15.12
2018-12-21T01:17:05.467Z,15.18
2018-12-21T01:17:37.442Z,15.1
2018-12-21T01:18:09.414Z,15.16
2018-12-21T01:18:41.375Z,15.25
2018-12-21T01:19:13.364Z,15.16
2018-12-21T01:19:45.337Z,15.15
2018-12-21T01:20:17.308Z,15.08
2018-12-21T01:20:49.284Z,15.12
2018-12-21T01:21:21.260Z,15.18
2018-12-21T01:21:53.230Z,15.1
2018-12-21T01:22:25.186Z,15.07
2018-12-21T01:22:57.198Z,15.13
2018-12-21T01:23:29.172Z,15.1
2018-12-21T01:24:01.169Z,15.12
2018-12-21T01:24:33.137Z,15.13
2018-12-21T01:25:05.144Z,15.13
2018-12-21T01:25:37.119Z,15.15
2018-12-21T01:26:09.089Z,15.19
2018-12-21T01:26:41.066Z,15.15
2018-12-21T01:27:13.045Z,15.13
2018-12-21T01:27:45.007Z,15.15
2018-12-21T01:28:16.970Z,15.18
2018-12-21T01:28:48.933Z,15.13
2018-12-21T01:29:20.954Z,15.13
2018-12-21T01:29:52.939Z,15.19
2018-12-21T01:30:24.910Z,15.12
2018-12-21T01:30:56.901Z,15.1
2018-12-21T01:31:28.882Z,15.19
2018-12-21T01:32:00.862Z,15.12
2018-12-21T01:32:32.954Z,15.15
2018-12-21T01:33:04.946Z,15.13
2018-12-21T01:33:36.904Z,15.2
2018-12-21T01:34:08.901Z,15.16
2018-12-21T01:34:40.851Z,15.15
2018-12-21T01:35:12.809Z,15.16
2018-12-21T01:35:44.911Z,15.15
2018-12-21T01:36:16.878Z,15.12
2018-12-21T01:36:48.930Z,15.15
2018-12-21T01:37:20.899Z,15.12
2018-12-21T01:37:52.874Z,15.18
2018-12-21T01:38:24.848Z,15.2
2018-12-21T01:38:56.801Z,15.13
2018-12-21T01:39:28.769Z,15.19
2018-12-21T01:40:00.741Z,15.18
2018-12-21T01:40:32.725Z,15.16
2018-12-21T01:41:04.696Z,15.12
2018-12-21T01:41:36.677Z,15.16
2018-12-21T01:42:08.647Z,15.19
2018-12-21T01:42:40.759Z,15.15
2018-12-21T01:43:12.717Z,15.15
2018-12-21T01:43:44.708Z,15.2
2018-12-21T01:44:16.787Z,15.22
2018-12-21T01:44:48.761Z,15.15
2018-12-21T01:45:20.741Z,15.2
2018-12-21T01:45:52.709Z,15.13
2018-12-21T01:46:24.753Z,15.22
2018-12-21T01:46:56.730Z,15.16
2018-12-21T01:47:28.696Z,15.18
2018-12-21T01:48:00.657Z,15.19
2018-12-21T01:48:32.632Z,15.16
2018-12-21T01:49:04.605Z,15.18
2018-12-21T01:49:36.580Z,15.2
2018-12-21T01:50:08.561Z,15.13
2018-12-21T01:50:40.544Z,15.13
2018-12-21T01:51:12.520Z,15.12
2018-12-21T01:51:47.152Z,15.13
2018-12-21T01:52:19.274Z,15.15
2018-12-21T01:52:51.209Z,15.15
2018-12-21T01:53:23.157Z,15.22
2018-12-21T01:53:55.133Z,15.18
2018-12-21T01:54:27.100Z,15.16
2018-12-21T01:54:59.068Z,15.25
2018-12-21T01:55:31.038Z,15.27
2018-12-21T01:56:03.022Z,15.23
2018-12-21T01:56:35.009Z,15.16
2018-12-21T01:57:06.997Z,15.3
2018-12-21T01:57:38.971Z,15.15
2018-12-21T01:58:10.932Z,15.16
2018-12-21T01:58:42.924Z,15.18
2018-12-21T01:59:15.000Z,15.22
2018-12-21T01:59:46.957Z,15.22
2018-12-21T02:00:18.915Z,15.22
2018-12-21T02:00:50.901Z,15.18
2018-12-21T02:01:22.872Z,15.19
2018-12-21T02:01:54.840Z,15.13
2018-12-21T02:02:26.816Z,15.2
2018-12-21T02:02:58.776Z,15.25
2018-12-21T02:03:30.754Z,15.13
2018-12-21T02:04:02.720Z,15.23
2018-12-21T02:04:34.686Z,15.2
2018-12-21T02:05:06.641Z,15.18
2018-12-21T02:05:38.606Z,15.16
2018-12-21T02:06:10.583Z,15.16
2018-12-21T02:06:42.564Z,15.18
2018-12-21T02:07:14.534Z,15.19
2018-12-21T02:07:46.505Z,15.25
2018-12-21T02:08:18.485Z,15.23
2018-12-21T02:08:50.454Z,15.2
2018-12-21T02:09:22.422Z,15.16
2018-12-21T02:09:54.399Z,15.16
2018-12-21T02:10:26.390Z,15.27
2018-12-21T02:10:58.361Z,15.16
2018-12-21T02:11:30.331Z,15.27
2018-12-21T02:12:02.303Z,15.15
2018-12-21T02:12:34.269Z,15.13
2018-12-21T02:13:06.240Z,15.31
2018-12-21T02:13:38.220Z,15.3
2018-12-21T02:14:10.182Z,15.19
2018-12-21T02:14:42.145Z,15.2
2018-12-21T02:15:14.123Z,15.22
2018-12-21T02:15:46.195Z,15.19
2018-12-21T02:16:18.170Z,15.25
2018-12-21T02:16:50.198Z,15.16
2018-12-21T02:17:22.244Z,15.27
2018-12-21T02:17:54.213Z,15.23
2018-12-21T02:18:26.176Z,15.3
2018-12-21T02:18:58.146Z,15.31
2018-12-21T02:19:30.109Z,15.3
2018-12-21T02:20:02.086Z,15.15
2018-12-21T02:20:34.056Z,15.2
2018-12-21T02:21:06.026Z,15.12
2018-12-21T02:21:38.087Z,15.19
2018-12-21T02:22:10.077Z,15.13
2018-12-21T02:22:42.051Z,15.19
2018-12-21T02:23:14.137Z,15.31
2018-12-21T02:23:46.123Z,15.23
2018-12-21T02:24:18.099Z,15.3
2018-12-21T02:24:50.079Z,15.25
2018-12-21T02:25:22.045Z,15.23
2018-12-21T02:25:54.017Z,15.23
2018-12-21T02:26:25.985Z,15.12
2018-12-21T02:26:57.967Z,15.25
2018-12-21T02:27:29.942Z,15.15
2018-12-21T02:28:01.920Z,15.18
2018-12-21T02:28:33.889Z,15.13
2018-12-21T02:29:05.872Z,15.19
2018-12-21T02:29:37.852Z,15.15
2018-12-21T02:30:09.814Z,15.18
2018-12-21T02:30:41.808Z,15.3
2018-12-21T02:31:13.777Z,15.15
2018-12-21T02:31:45.765Z,15.18
2018-12-21T02:32:17.761Z,15.19
2018-12-21T02:32:49.753Z,15.16
2018-12-21T02:33:21.731Z,15.3
2018-12-21T02:33:53.703Z,15.15
2018-12-21T02:34:25.805Z,15.19
2018-12-21T02:34:57.774Z,15.19
2018-12-21T02:35:29.747Z,15.27
2018-12-21T02:36:01.725Z,15.2
2018-12-21T02:36:33.703Z,15.16
2018-12-21T02:37:05.672Z,15.13
2018-12-21T02:37:37.649Z,15.19
2018-12-21T02:38:09.618Z,15.2
2018-12-21T02:38:41.600Z,15.16
2018-12-21T02:39:13.582Z,15.15
2018-12-21T02:39:45.573Z,15.2
2018-12-21T02:40:17.698Z,15.22
2018-12-21T02:40:49.686Z,15.18
2018-12-21T02:41:21.668Z,15.18
2018-12-21T02:41:53.663Z,15.15
2018-12-21T02:42:25.642Z,15.13
2018-12-21T02:42:57.604Z,15.22
2018-12-21T02:43:29.585Z,15.12
2018-12-21T02:44:01.586Z,15.16
2018-12-21T02:44:33.574Z,15.15
2018-12-21T02:45:05.546Z,15.18
2018-12-21T02:45:37.566Z,15.16
2018-12-21T02:46:09.537Z,15.19
2018-12-21T02:46:41.517Z,15.22
2018-12-21T02:47:13.507Z,15.13
2018-12-21T02:47:45.525Z,15.15
2018-12-21T02:48:17.493Z,15.19
2018-12-21T02:48:49.466Z,15.22
2018-12-21T02:49:21.442Z,15.22
2018-12-21T02:49:53.425Z,15.25
2018-12-21T02:50:25.518Z,15.23
2018-12-21T02:50:57.474Z,15.18
2018-12-21T02:51:29.448Z,15.2
2018-12-21T02:52:05.547Z,15.18
2018-12-21T02:52:37.868Z,15.16
2018-12-21T02:53:09.839Z,15.16
2018-12-21T02:53:41.823Z,15.16
2018-12-21T02:54:13.806Z,15.16
2018-12-21T02:54:45.792Z,15.13
2018-12-21T02:55:17.761Z,15.19
2018-12-21T02:55:49.752Z,15.19
2018-12-21T02:56:21.716Z,15.13
2018-12-21T02:56:53.692Z,15.18
2018-12-21T02:57:25.663Z,15.19
2018-12-21T02:57:57.642Z,15.18
2018-12-21T02:58:29.614Z,15.1
2018-12-21T02:59:01.583Z,15.2
2018-12-21T02:59:33.566Z,15.27
2018-12-21T03:00:05.563Z,15.18
2018-12-21T03:00:37.652Z,15.19
2018-12-21T03:01:09.614Z,15.18
2018-12-21T03:01:41.609Z,15.19
2018-12-21T03:02:13.591Z,15.15
2018-12-21T03:02:45.686Z,15.16
2018-12-21T03:03:17.684Z,15.22
2018-12-21T03:03:49.728Z,15.19
2018-12-21T03:04:21.731Z,15.18
2018-12-21T03:04:53.701Z,15.16
2018-12-21T03:05:25.695Z,15.16
2018-12-21T03:05:57.698Z,15.13
2018-12-21T03:06:29.674Z,15.26
2018-12-21T03:07:01.646Z,15.18
2018-12-21T03:07:33.615Z,15.18
2018-12-21T03:08:05.593Z,15.18
2018-12-21T03:08:37.587Z,15.16
2018-12-21T03:09:09.556Z,15.16
2018-12-21T03:09:41.700Z,15.15
2018-12-21T03:10:13.683Z,15.16
2018-12-21T03:10:45.664Z,15.08
2018-12-21T03:11:17.642Z,15.16
2018-12-21T03:11:49.602Z,15.19
2018-12-21T03:12:21.576Z,15.15
2018-12-21T03:12:53.604Z,15.18
2018-12-21T03:13:25.598Z,15.2
2018-12-21T03:13:57.572Z,15.15
2018-12-21T03:14:29.652Z,15.18
2018-12-21T03:15:01.626Z,15.19
2018-12-21T03:15:33.613Z,15.1
2018-12-21T03:16:05.589Z,15.16
2018-12-21T03:16:37.567Z,15.16
2018-12-21T03:17:09.534Z,15.19
2018-12-21T03:17:41.519Z,15.18
2018-12-21T03:18:13.517Z,15.16
2018-12-21T03:18:45.556Z,15.13
2018-12-21T03:19:20.304Z,15.16
2018-12-21T03:19:52.267Z,15.2
2018-12-21T03:20:24.228Z,15.15
2018-12-21T03:20:56.213Z,15.19
2018-12-21T03:21:28.168Z,15.13
2018-12-21T03:22:00.137Z,15.2
2018-12-21T03:22:32.135Z,15.25
2018-12-21T03:23:04.106Z,15.15
2018-12-21T03:23:36.102Z,15.15
2018-12-21T03:24:08.080Z,15.22
2018-12-21T03:24:40.051Z,15.18
2018-12-21T03:25:12.032Z,15.1
2018-12-21T03:25:44.008Z,15.15
2018-12-21T03:26:15.986Z,15.13
2018-12-21T03:26:47.962Z,15.15
2018-12-21T03:27:19.953Z,15.19
2018-12-21T03:27:51.928Z,15.19
2018-12-21T03:28:23.925Z,15.18
2018-12-21T03:28:55.904Z,15.15
2018-12-21T03:29:27.875Z,15.18
2018-12-21T03:29:59.852Z,15.2
2018-12-21T03:30:31.837Z,15.2
2018-12-21T03:31:03.841Z,15.18
2018-12-21T03:31:35.916Z,15.15
2018-12-21T03:32:07.927Z,15.16
2018-12-21T03:32:39.944Z,15.18
2018-12-21T03:33:11.952Z,15.23
2018-12-21T03:33:43.941Z,15.2
2018-12-21T03:34:15.917Z,15.15
2018-12-21T03:34:47.939Z,15.1
2018-12-21T03:35:19.962Z,15.18
2018-12-21T03:35:52.300Z,15.15
2018-12-21T03:36:24.298Z,15.1
2018-12-21T03:36:56.332Z,15.19
2018-12-21T03:37:28.309Z,15.19
2018-12-21T03:38:00.280Z,15.13
2018-12-21T03:38:32.249Z,15.1
2018-12-21T03:39:04.227Z,15.25
2018-12-21T03:39:36.190Z,15.13
2018-12-21T03:40:08.165Z,15.13
2018-12-21T03:40:40.270Z,15.13
2018-12-21T03:41:12.230Z,15.12
2018-12-21T03:41:44.212Z,15.12
2018-12-21T03:42:16.191Z,15.16
2018-12-21T03:42:48.179Z,15.2
2018-12-21T03:43:20.181Z,15.13
2018-12-21T03:43:52.166Z,15.19
2018-12-21T03:44:24.148Z,15.19
2018-12-21T03:44:56.246Z,15.19
2018-12-21T03:45:28.228Z,15.16
2018-12-21T03:46:00.190Z,15.16
2018-12-21T03:46:32.338Z,15.15
2018-12-21T03:47:04.297Z,15.2
2018-12-21T03:47:36.272Z,15.2
2018-12-21T03:48:08.244Z,15.16
2018-12-21T03:48:40.214Z,15.19
2018-12-21T03:49:12.178Z,15.15
2018-12-21T03:49:44.160Z,15.18
2018-12-21T03:50:16.130Z,15.22
2018-12-21T03:50:48.103Z,15.2
2018-12-21T03:51:20.083Z,15.23
2018-12-21T03:51:52.064Z,15.16
2018-12-21T03:52:24.731Z,15.18
2018-12-21T03:52:56.767Z,15.12
2018-12-21T03:53:28.745Z,15.16
2018-12-21T03:54:00.825Z,15.18
2018-12-21T03:54:32.804Z,15.16
2018-12-21T03:55:04.780Z,15.13
2018-12-21T03:55:36.990Z,15.15
2018-12-21T03:56:08.959Z,15.15
2018-12-21T03:56:40.951Z,15.13
2018-12-21T03:57:12.949Z,15.16
2018-12-21T03:57:44.933Z,15.22
2018-12-21T03:58:16.903Z,15.18
2018-12-21T03:58:48.924Z,15.12
2018-12-21T03:59:20.896Z,15.19
2018-12-21T03:59:52.879Z,15.2
2018-12-21T04:00:24.855Z,15.18
2018-12-21T04:00:56.824Z,15.18
2018-12-21T04:01:28.802Z,15.19
2018-12-21T04:02:00.786Z,15.16
2018-12-21T04:02:32.786Z,15.22
2018-12-21T04:03:04.765Z,15.13
2018-12-21T04:03:36.734Z,15.16
2018-12-21T04:04:08.739Z,15.13
2018-12-21T04:04:40.723Z,15.23
2018-12-21T04:05:12.700Z,15.12
2018-12-21T04:05:44.671Z,15.15
2018-12-21T04:06:16.651Z,15.12
2018-12-21T04:06:48.626Z,15.13
2018-12-21T04:07:20.589Z,15.13
2018-12-21T04:07:52.591Z,15.16
2018-12-21T04:08:24.582Z,15.19
2018-12-21T04:08:56.710Z,15.19
2018-12-21T04:09:28.709Z,15.16
2018-12-21T04:10:00.691Z,15.16
2018-12-21T04:10:32.734Z,15.16
2018-12-21T04:11:04.697Z,15.13
2018-12-21T04:11:36.679Z,15.2
2018-12-21T04:12:08.653Z,15.12
2018-12-21T04:12:40.641Z,15.07
2018-12-21T04:13:12.639Z,15.18
2018-12-21T04:13:44.623Z,15.2
2018-12-21T04:14:16.602Z,15.1
2018-12-21T04:14:48.571Z,15.1
2018-12-21T04:15:20.566Z,15.15
2018-12-21T04:15:52.547Z,15.15
2018-12-21T04:16:24.517Z,15.16
2018-12-21T04:16:56.511Z,15.16
2018-12-21T04:17:28.490Z,15.18
2018-12-21T04:18:00.452Z,15.13
2018-12-21T04:18:32.433Z,15.13
2018-12-21T04:19:04.432Z,15.08
2018-12-21T04:19:36.425Z,15.13
2018-12-21T04:20:08.469Z,15.15
2018-12-21T04:20:40.452Z,15.1
2018-12-21T04:21:12.426Z,15.16
2018-12-21T04:21:44.404Z,15.2
2018-12-21T04:22:16.371Z,15.15
2018-12-21T04:22:48.329Z,15.19
2018-12-21T04:23:20.312Z,15.18
2018-12-21T04:23:52.293Z,15.15
2018-12-21T04:24:24.263Z,15.12
2018-12-21T04:24:56.245Z,15.1
2018-12-21T04:25:28.221Z,15.15
2018-12-21T04:26:00.224Z,15.15
2018-12-21T04:26:32.215Z,15.12
2018-12-21T04:27:04.191Z,15.08
2018-12-21T04:27:36.178Z,15.12
2018-12-21T04:28:08.149Z,15.18
2018-12-21T04:28:40.145Z,15.23
2018-12-21T04:29:12.111Z,15.1
2018-12-21T04:29:44.087Z,15.23
2018-12-21T04:30:16.061Z,15.15
2018-12-21T04:30:48.052Z,15.16
2018-12-21T04:31:20.039Z,15.12
2018-12-21T04:31:52.130Z,15.1
2018-12-21T04:32:24.102Z,15.16
2018-12-21T04:32:56.072Z,15.13
2018-12-21T04:33:28.045Z,15.16
2018-12-21T04:34:00.017Z,15.1
2018-12-21T04:34:32.034Z,15.15
2018-12-21T04:35:04.018Z,15.13
2018-12-21T04:35:35.984Z,15.18
2018-12-21T04:36:07.960Z,15.1
2018-12-21T04:36:39.988Z,15.12
2018-12-21T04:37:12.022Z,15.15
2018-12-21T04:37:44.020Z,15.16
2018-12-21T04:38:16.006Z,15.15
2018-12-21T04:38:48.004Z,15.12
2018-12-21T04:39:19.975Z,15.16
2018-12-21T04:39:51.988Z,15.08
2018-12-21T04:40:23.975Z,15.16
2018-12-21T04:40:55.970Z,15.15
2018-12-21T04:41:28.017Z,15.2
2018-12-21T04:42:00.011Z,15.13
2018-12-21T04:42:31.988Z,15.13
2018-12-21T04:43:03.966Z,15.16
2018-12-21T04:43:35.943Z,15.13
2018-12-21T04:44:07.926Z,15.12
2018-12-21T04:44:39.907Z,15.13
2018-12-21T04:45:11.931Z,15.13
2018-12-21T04:45:43.920Z,15.15
2018-12-21T04:46:16.011Z,15.18
2018-12-21T04:46:48.005Z,15.19
2018-12-21T04:47:19.970Z,15.12
2018-12-21T04:47:51.945Z,15.23
2018-12-21T04:48:23.921Z,15.16
2018-12-21T04:48:55.903Z,15.15
2018-12-21T04:49:27.880Z,15.16
2018-12-21T04:49:59.855Z,15.18
2018-12-21T04:50:31.853Z,15.16
2018-12-21T04:51:03.829Z,15.13
2018-12-21T04:51:35.819Z,15.15
2018-12-21T04:52:07.813Z,15.19
2018-12-21T04:52:43.289Z,15.16
2018-12-21T04:53:15.605Z,15.16
2018-12-21T04:53:47.583Z,15.15
2018-12-21T04:54:19.572Z,15.19
2018-12-21T04:54:51.559Z,15.07
2018-12-21T04:55:23.533Z,15.07
2018-12-21T04:55:55.509Z,15.12
2018-12-21T04:56:27.469Z,15.08
2018-12-21T04:56:59.455Z,15.15
2018-12-21T04:57:31.448Z,15.15
2018-12-21T04:58:03.431Z,15.13
2018-12-21T04:58:35.393Z,15.15
2018-12-21T04:59:09.516Z,15.1
2018-12-21T04:59:41.737Z,15.12
2018-12-21T05:00:13.727Z,15.08
2018-12-21T05:00:45.769Z,15.1
2018-12-21T05:01:17.772Z,15.13
2018-12-21T05:01:49.748Z,15.18
2018-12-21T05:02:21.724Z,15.1
2018-12-21T05:02:53.705Z,15.18
2018-12-21T05:03:25.681Z,15.2
2018-12-21T05:03:57.747Z,15.18
2018-12-21T05:04:29.723Z,15.26
2018-12-21T05:05:01.691Z,15.08
2018-12-21T05:05:33.669Z,15.15
2018-12-21T05:06:05.712Z,15.12
2018-12-21T05:06:37.700Z,15.1
2018-12-21T05:07:12.459Z,15.1
2018-12-21T05:07:44.689Z,15.12
2018-12-21T05:08:16.660Z,15.07
2018-12-21T05:08:48.640Z,15.15
2018-12-21T05:09:20.628Z,15.1
2018-12-21T05:09:52.592Z,15.12
2018-12-21T05:10:24.564Z,15.13
2018-12-21T05:10:56.529Z,15.12
2018-12-21T05:11:28.514Z,15.12
2018-12-21T05:12:00.521Z,15.13
2018-12-21T05:12:32.503Z,15.1
2018-12-21T05:13:04.485Z,15.13
2018-12-21T05:13:36.465Z,15.13
2018-12-21T05:14:08.444Z,15.12
2018-12-21T05:14:40.423Z,15.13
2018-12-21T05:15:12.402Z,15.13
2018-12-21T05:15:44.526Z,15.1
2018-12-21T05:16:16.508Z,15.18
2018-12-21T05:16:48.485Z,15.13
2018-12-21T05:17:20.485Z,15.07
2018-12-21T05:17:52.486Z,15.12
2018-12-21T05:18:24.491Z,15.13
2018-12-21T05:18:56.458Z,15.1
2018-12-21T05:19:28.447Z,15.13
2018-12-21T05:20:00.427Z,15.18
2018-12-21T05:20:32.432Z,15.1
2018-12-21T05:21:04.413Z,15.18
2018-12-21T05:21:36.389Z,15.16
2018-12-21T05:22:08.359Z,15.13
2018-12-21T05:22:40.423Z,15.15
2018-12-21T05:23:12.412Z,15.1
2018-12-21T05:23:44.412Z,15.18
2018-12-21T05:24:16.481Z,15.15
2018-12-21T05:24:48.448Z,15.15
2018-12-21T05:25:20.488Z,15.12
2018-12-21T05:25:52.473Z,15.13
2018-12-21T05:26:24.458Z,15.16
2018-12-21T05:26:56.418Z,15.13
2018-12-21T05:27:28.405Z,15.12
2018-12-21T05:28:00.436Z,15.08
2018-12-21T05:28:32.409Z,15.1
2018-12-21T05:29:04.392Z,15.05
2018-12-21T05:29:36.400Z,15.05
2018-12-21T05:30:10.846Z,15.13
2018-12-21T05:30:42.834Z,15.15
2018-12-21T05:31:14.827Z,15.1
2018-12-21T05:31:46.795Z,15.1
2018-12-21T05:32:18.768Z,15.02
2018-12-21T05:32:50.739Z,15.1
2018-12-21T05:33:22.711Z,15.04
2018-12-21T05:33:54.696Z,15.15
2018-12-21T05:34:26.686Z,15.08
2018-12-21T05:34:58.647Z,15.1
2018-12-21T05:35:30.615Z,15.13
2018-12-21T05:36:02.595Z,15.08
2018-12-21T05:36:34.657Z,15.15
2018-12-21T05:37:06.648Z,15.15
2018-12-21T05:37:38.629Z,15.08
2018-12-21T05:38:10.599Z,15.04
2018-12-21T05:38:42.563Z,15.13
2018-12-21T05:39:14.615Z,15.02
2018-12-21T05:39:46.582Z,15.12
2018-12-21T05:40:18.545Z,15.12
2018-12-21T05:40:50.530Z,15.12
2018-12-21T05:41:22.505Z,15.05
2018-12-21T05:41:54.481Z,15.13
2018-12-21T05:42:26.442Z,15.08
2018-12-21T05:42:58.418Z,15.1
2018-12-21T05:43:30.386Z,15.05
2018-12-21T05:44:02.363Z,15.16
2018-12-21T05:44:34.344Z,15.15
2018-12-21T05:45:06.330Z,15.04
2018-12-21T05:45:38.315Z,15.05
2018-12-21T05:46:10.384Z,15.05
2018-12-21T05:46:42.365Z,15.13
2018-12-21T05:47:14.342Z,15.15
2018-12-21T05:47:46.313Z,15.13
2018-12-21T05:48:18.283Z,15.12
2018-12-21T05:48:50.271Z,15.02
2018-12-21T05:49:22.234Z,15.13
2018-12-21T05:49:54.194Z,15.08
2018-12-21T05:50:26.176Z,15.1
2018-12-21T05:50:58.161Z,15.12
2018-12-21T05:51:30.132Z,15.05
2018-12-21T05:52:02.096Z,15.08
2018-12-21T05:52:34.088Z,15.13
2018-12-21T05:53:06.065Z,15.12
2018-12-21T05:53:38.042Z,15.07
2018-12-21T05:54:10.019Z,15.07
2018-12-21T05:54:41.982Z,15.13
2018-12-21T05:55:13.963Z,15.07
2018-12-21T05:55:45.937Z,15.05
2018-12-21T05:56:17.897Z,15.04
2018-12-21T05:56:49.870Z,15.1
2018-12-21T05:57:21.835Z,15.13
2018-12-21T05:57:53.873Z,15.12
2018-12-21T05:58:25.865Z,15.07
2018-12-21T05:58:57.862Z,15.12
2018-12-21T05:59:29.851Z,15.1
2018-12-21T06:00:01.821Z,15.15
2018-12-21T06:00:33.834Z,15.05
2018-12-21T06:01:05.807Z,15.07
2018-12-21T06:01:37.784Z,15.13
2018-12-21T06:02:09.742Z,15.1
2018-12-21T06:02:41.712Z,15.1
2018-12-21T06:03:13.680Z,15.12
2018-12-21T06:03:45.663Z,15.1
2018-12-21T06:04:17.631Z,15.13
2018-12-21T06:04:49.621Z,15.1
2018-12-21T06:05:21.591Z,15.01
2018-12-21T06:05:53.573Z,15.07
2018-12-21T06:06:25.542Z,15.04
2018-12-21T06:06:57.538Z,15.12
2018-12-21T06:07:29.510Z,15.1
2018-12-21T06:08:01.490Z,15.16
2018-12-21T06:08:33.475Z,15.15
2018-12-21T06:09:05.491Z,15.12
2018-12-21T06:09:37.474Z,15.07
2018-12-21T06:10:09.482Z,15.08
2018-12-21T06:10:41.481Z,15.15
2018-12-21T06:11:13.479Z,15.12
2018-12-21T06:11:45.620Z,15.07
2018-12-21T06:12:17.595Z,15.04
2018-12-21T06:12:49.578Z,15.1
2018-12-21T06:13:21.590Z,15.1
2018-12-21T06:13:53.605Z,15.04
2018-12-21T06:14:25.689Z,15.04
2018-12-21T06:14:57.680Z,15.07
2018-12-21T06:15:29.637Z,15.12
2018-12-21T06:16:01.625Z,15.07
2018-12-21T06:16:33.594Z,15.1
2018-12-21T06:17:05.569Z,15.04
2018-12-21T06:17:37.638Z,15.05
2018-12-21T06:18:09.626Z,15.01
2018-12-21T06:18:41.581Z,15.08
2018-12-21T06:19:13.554Z,15.07
2018-12-21T06:19:45.541Z,15.02
2018-12-21T06:20:17.507Z,15.08
2018-12-21T06:20:49.459Z,15.1
2018-12-21T06:21:21.441Z,15.13
2018-12-21T06:21:53.516Z,15.04
2018-12-21T06:22:25.493Z,15.08
2018-12-21T06:22:57.462Z,15.04
2018-12-21T06:23:29.456Z,15.13
2018-12-21T06:24:01.416Z,15.08
2018-12-21T06:24:33.405Z,15.07
2018-12-21T06:25:05.362Z,15.02
2018-12-21T06:25:37.362Z,15.05
2018-12-21T06:26:09.361Z,15.02
2018-12-21T06:26:41.322Z,15.08
2018-12-21T06:27:13.303Z,15.07
2018-12-21T06:27:45.280Z,15.02
2018-12-21T06:28:17.327Z,15.05
2018-12-21T06:28:49.299Z,15.12
2018-12-21T06:29:21.280Z,14.98
2018-12-21T06:29:53.259Z,15.05
2018-12-21T06:30:25.237Z,15.08
2018-12-21T06:30:57.208Z,14.98
2018-12-21T06:31:29.184Z,15.05
2018-12-21T06:32:01.154Z,15.12
2018-12-21T06:32:33.149Z,15.08
2018-12-21T06:33:05.134Z,15.1
2018-12-21T06:33:37.108Z,14.97
2018-12-21T06:34:09.083Z,15.05
2018-12-21T06:34:41.070Z,14.98
2018-12-21T06:35:13.076Z,15
2018-12-21T06:35:45.068Z,15.07
2018-12-21T06:36:17.043Z,15.1
2018-12-21T06:36:49.022Z,15.07
2018-12-21T06:37:20.998Z,15.01
2018-12-21T06:37:52.975Z,15.01
2018-12-21T06:38:24.935Z,15.07
2018-12-21T06:38:56.915Z,15.12
2018-12-21T06:39:28.888Z,15.05
2018-12-21T06:40:00.859Z,15.07
2018-12-21T06:40:32.847Z,15
2018-12-21T06:41:04.831Z,15.04
2018-12-21T06:41:36.816Z,14.98
2018-12-21T06:42:08.785Z,14.97
2018-12-21T06:42:40.754Z,15.02
2018-12-21T06:43:12.711Z,14.94
2018-12-21T06:43:44.794Z,14.98
2018-12-21T06:44:16.774Z,14.95
2018-12-21T06:44:48.743Z,15.05
2018-12-21T06:45:20.720Z,15.04
2018-12-21T06:45:52.686Z,14.98
2018-12-21T06:46:24.674Z,15.01
2018-12-21T06:46:56.639Z,15
2018-12-21T06:47:28.616Z,14.98
2018-12-21T06:48:00.589Z,14.94
2018-12-21T06:48:32.596Z,15.02
2018-12-21T06:49:04.581Z,15
2018-12-21T06:49:36.547Z,14.93
2018-12-21T06:50:08.511Z,15.01
2018-12-21T06:50:40.510Z,14.97
2018-12-21T06:51:12.491Z,14.97
2018-12-21T06:51:44.482Z,15.01
2018-12-21T06:52:16.467Z,14.89
2018-12-21T06:52:48.441Z,14.95
2018-12-21T06:53:20.426Z,14.95
2018-12-21T06:53:52.407Z,15.04
2018-12-21T06:54:24.412Z,14.94